sensor_id;sensor_type;location;lat;lon;timestamp;pressure;altitude;pressure_sealevel;temperature;humidity
16580;BME280;8402;51.466;6.806;2023-03-22T00:02:25;100792.34;;;12.81;87.12
16580;BME280;8402;51.466;6.806;2023-03-22T00:04:56;100791.69;;;12.84;86.91
16580;BME280;8402;51.466;6.806;2023-03-22T00:07:26;100787.81;;;12.85;87.25
16580;BME280;8402;51.466;6.806;2023-03-22T00:09:57;100785.59;;;12.87;86.92
16580;BME280;8402;51.466;6.806;2023-03-22T00:12:27;100786.06;;;12.89;86.80
16580;BME280;8402;51.466;6.806;2023-03-22T00:21:38;100783.34;;;12.89;87.07
16580;BME280;8402;51.466;6.806;2023-03-22T00:24:08;100781.06;;;12.91;86.73
16580;BME280;8402;51.466;6.806;2023-03-22T00:26:38;100772.25;;;12.94;86.71
16580;BME280;8402;51.466;6.806;2023-03-22T00:29:08;100767.94;;;12.93;86.81
16580;BME280;8402;51.466;6.806;2023-03-22T00:31:37;100770.19;;;12.91;86.60
16580;BME280;8402;51.466;6.806;2023-03-22T00:34:07;100762.34;;;12.90;86.70
16580;BME280;8402;51.466;6.806;2023-03-22T00:36:42;100763.66;;;12.84;86.71
16580;BME280;8402;51.466;6.806;2023-03-22T00:39:12;100762.84;;;12.83;86.62
16580;BME280;8402;51.466;6.806;2023-03-22T00:41:42;100749.56;;;12.82;86.83
16580;BME280;8402;51.466;6.806;2023-03-22T00:44:12;100759.69;;;12.81;86.71
16580;BME280;8402;51.466;6.806;2023-03-22T00:46:41;100744.47;;;12.80;86.84
16580;BME280;8402;51.466;6.806;2023-03-22T00:49:11;100739.66;;;12.77;86.77
16580;BME280;8402;51.466;6.806;2023-03-22T00:51:44;100753.28;;;12.77;86.77
16580;BME280;8402;51.466;6.806;2023-03-22T00:54:14;100750.09;;;12.75;87.10
16580;BME280;8402;51.466;6.806;2023-03-22T00:56:44;100743.50;;;12.76;87.20
16580;BME280;8402;51.466;6.806;2023-03-22T00:59:15;100731.38;;;12.74;87.24
16580;BME280;8402;51.466;6.806;2023-03-22T01:01:48;100730.56;;;12.73;87.15
16580;BME280;8402;51.466;6.806;2023-03-22T01:04:17;100728.97;;;12.72;87.04
16580;BME280;8402;51.466;6.806;2023-03-22T01:06:54;100728.97;;;12.72;87.05
16580;BME280;8402;51.466;6.806;2023-03-22T01:09:28;100729.28;;;12.71;87.06
16580;BME280;8402;51.466;6.806;2023-03-22T01:12:00;100729.63;;;12.69;87.15
16580;BME280;8402;51.466;6.806;2023-03-22T01:14:30;100717.47;;;12.66;87.36
16580;BME280;8402;51.466;6.806;2023-03-22T01:17:00;100720.03;;;12.63;87.72
16580;BME280;8402;51.466;6.806;2023-03-22T01:19:30;100713.97;;;12.66;87.29
16580;BME280;8402;51.466;6.806;2023-03-22T01:22:02;100716.19;;;12.64;87.55
16580;BME280;8402;51.466;6.806;2023-03-22T01:24:32;100712.66;;;12.63;87.58
16580;BME280;8402;51.466;6.806;2023-03-22T01:27:02;100711.41;;;12.61;87.58
16580;BME280;8402;51.466;6.806;2023-03-22T01:29:32;100707.44;;;12.58;87.64
16580;BME280;8402;51.466;6.806;2023-03-22T01:32:01;100703.59;;;12.59;87.58
16580;BME280;8402;51.466;6.806;2023-03-22T01:34:32;100687.88;;;12.56;87.71
16580;BME280;8402;51.466;6.806;2023-03-22T01:37:04;100689.81;;;12.56;87.79
16580;BME280;8402;51.466;6.806;2023-03-22T01:39:34;100687.09;;;12.56;87.62
16580;BME280;8402;51.466;6.806;2023-03-22T01:42:04;100681.34;;;12.57;87.91
16580;BME280;8402;51.466;6.806;2023-03-22T01:47:54;100668.25;;;12.51;88.23
16580;BME280;8402;51.466;6.806;2023-03-22T01:50:26;100662.00;;;12.50;87.98
16580;BME280;8402;51.466;6.806;2023-03-22T01:53:00;100660.25;;;12.46;88.26
16580;BME280;8402;51.466;6.806;2023-03-22T01:55:31;100653.69;;;12.47;88.08
16580;BME280;8402;51.466;6.806;2023-03-22T01:58:02;100650.97;;;12.47;88.15
16580;BME280;8402;51.466;6.806;2023-03-22T02:00:33;100660.09;;;12.42;88.33
16580;BME280;8402;51.466;6.806;2023-03-22T02:03:04;100655.47;;;12.43;88.29
16580;BME280;8402;51.466;6.806;2023-03-22T02:05:34;100650.34;;;12.41;88.18
16580;BME280;8402;51.466;6.806;2023-03-22T02:08:07;100650.69;;;12.39;88.30
16580;BME280;8402;51.466;6.806;2023-03-22T02:10:40;100640.47;;;12.36;88.14
16580;BME280;8402;51.466;6.806;2023-03-22T02:13:22;100642.25;;;12.32;88.23
16580;BME280;8402;51.466;6.806;2023-03-22T02:16:02;100631.69;;;12.31;88.41
16580;BME280;8402;51.466;6.806;2023-03-22T02:18:46;100631.53;;;12.27;88.27
16580;BME280;8402;51.466;6.806;2023-03-22T02:21:42;100622.13;;;12.25;88.56
16580;BME280;8402;51.466;6.806;2023-03-22T02:34:04;100607.38;;;12.26;88.37
16580;BME280;8402;51.466;6.806;2023-03-22T02:37:01;100605.78;;;12.25;88.68
16580;BME280;8402;51.466;6.806;2023-03-22T02:39:41;100606.25;;;12.27;88.53
16580;BME280;8402;51.466;6.806;2023-03-22T02:42:26;100593.16;;;12.20;88.95
16580;BME280;8402;51.466;6.806;2023-03-22T02:45:10;100597.16;;;12.23;88.85
16580;BME280;8402;51.466;6.806;2023-03-22T02:47:48;100592.97;;;12.25;89.05
16580;BME280;8402;51.466;6.806;2023-03-22T02:50:24;100591.41;;;12.24;88.86
16580;BME280;8402;51.466;6.806;2023-03-22T02:53:00;100585.94;;;12.24;88.75
16580;BME280;8402;51.466;6.806;2023-03-22T02:55:37;100594.13;;;12.24;88.68
16580;BME280;8402;51.466;6.806;2023-03-22T02:58:13;100588.66;;;12.24;88.64
16580;BME280;8402;51.466;6.806;2023-03-22T03:00:46;100591.41;;;12.24;88.79
16580;BME280;8402;51.466;6.806;2023-03-22T03:03:19;100590.94;;;12.22;88.62
16580;BME280;8402;51.466;6.806;2023-03-22T03:05:54;100585.50;;;12.22;88.78
16580;BME280;8402;51.466;6.806;2023-03-22T03:08:26;100586.28;;;12.23;89.14
16580;BME280;8402;51.466;6.806;2023-03-22T03:10:59;100582.78;;;12.22;88.81
16580;BME280;8402;51.466;6.806;2023-03-22T03:13:29;100580.69;;;12.19;88.79
16580;BME280;8402;51.466;6.806;2023-03-22T03:15:59;100593.16;;;12.20;88.62
16580;BME280;8402;51.466;6.806;2023-03-22T03:18:38;100580.69;;;12.19;88.77
16580;BME280;8402;51.466;6.806;2023-03-22T03:21:22;100592.09;;;12.12;88.70
16580;BME280;8402;51.466;6.806;2023-03-22T03:24:01;100591.97;;;12.09;88.69
16580;BME280;8402;51.466;6.806;2023-03-22T03:26:42;100587.81;;;12.03;88.65
16580;BME280;8402;51.466;6.806;2023-03-22T03:29:21;100582.22;;;11.99;89.05
16580;BME280;8402;51.466;6.806;2023-03-22T03:32:02;100575.69;;;11.92;89.46
16580;BME280;8402;51.466;6.806;2023-03-22T03:34:36;100567.09;;;11.90;89.80
16580;BME280;8402;51.466;6.806;2023-03-22T03:37:14;100573.97;;;11.87;89.45
16580;BME280;8402;51.466;6.806;2023-03-22T03:39:47;100573.19;;;11.87;89.48
16580;BME280;8402;51.466;6.806;2023-03-22T03:42:24;100569.97;;;11.84;89.60
16580;BME280;8402;51.466;6.806;2023-03-22T03:44:55;100567.59;;;11.83;89.57
16580;BME280;8402;51.466;6.806;2023-03-22T03:47:27;100572.88;;;11.79;89.79
16580;BME280;8402;51.466;6.806;2023-03-22T03:49:59;100568.06;;;11.76;89.89
16580;BME280;8402;51.466;6.806;2023-03-22T03:52:30;100576.38;;;11.71;90.20
16580;BME280;8402;51.466;6.806;2023-03-22T03:55:00;100577.84;;;11.69;90.15
16580;BME280;8402;51.466;6.806;2023-03-22T03:57:32;100576.91;;;11.65;90.26
16580;BME280;8402;51.466;6.806;2023-03-22T04:00:06;100570.19;;;11.62;90.39
16580;BME280;8402;51.466;6.806;2023-03-22T04:02:36;100576.75;;;11.61;90.37
16580;BME280;8402;51.466;6.806;2023-03-22T04:05:07;100569.72;;;11.60;90.72
16580;BME280;8402;51.466;6.806;2023-03-22T04:07:38;100568.13;;;11.59;90.42
16580;BME280;8402;51.466;6.806;2023-03-22T04:10:09;100570.34;;;11.57;90.45
16580;BME280;8402;51.466;6.806;2023-03-22T04:12:41;100577.25;;;11.54;90.54
16580;BME280;8402;51.466;6.806;2023-03-22T04:15:11;100573.75;;;11.54;90.55
16580;BME280;8402;51.466;6.806;2023-03-22T04:17:41;100570.56;;;11.52;90.66
16580;BME280;8402;51.466;6.806;2023-03-22T04:20:12;100568.81;;;11.47;90.65
16580;BME280;8402;51.466;6.806;2023-03-22T04:22:42;100569.75;;;11.43;91.16
16580;BME280;8402;51.466;6.806;2023-03-22T04:25:13;100568.03;;;11.38;91.31
16580;BME280;8402;51.466;6.806;2023-03-22T04:27:46;100554.78;;;11.37;91.39
16580;BME280;8402;51.466;6.806;2023-03-22T04:30:17;100557.00;;;11.35;91.58
16580;BME280;8402;51.466;6.806;2023-03-22T04:32:48;100556.53;;;11.33;91.94
16580;BME280;8402;51.466;6.806;2023-03-22T04:35:18;100546.78;;;11.32;91.77
16580;BME280;8402;51.466;6.806;2023-03-22T04:37:48;100546.16;;;11.26;92.69
16580;BME280;8402;51.466;6.806;2023-03-22T04:40:19;100553.03;;;11.23;92.51
16580;BME280;8402;51.466;6.806;2023-03-22T04:42:54;100559.75;;;11.17;93.23
16580;BME280;8402;51.466;6.806;2023-03-22T04:45:25;100556.38;;;11.20;92.98
16580;BME280;8402;51.466;6.806;2023-03-22T04:47:58;100557.03;;;11.17;93.23
16580;BME280;8402;51.466;6.806;2023-03-22T04:50:28;100557.50;;;11.19;93.01
16580;BME280;8402;51.466;6.806;2023-03-22T04:52:57;100560.88;;;11.16;93.45
16580;BME280;8402;51.466;6.806;2023-03-22T04:55:27;100559.28;;;11.15;93.73
16580;BME280;8402;51.466;6.806;2023-03-22T04:58:00;100551.44;;;11.14;93.94
16580;BME280;8402;51.466;6.806;2023-03-22T05:00:29;100553.88;;;11.15;93.53
16580;BME280;8402;51.466;6.806;2023-03-22T05:02:59;100551.31;;;11.10;94.69
16580;BME280;8402;51.466;6.806;2023-03-22T05:05:29;100556.09;;;11.13;93.77
16580;BME280;8402;51.466;6.806;2023-03-22T05:07:59;100554.50;;;11.12;94.93
16580;BME280;8402;51.466;6.806;2023-03-22T05:10:29;100554.97;;;11.14;94.44
16580;BME280;8402;51.466;6.806;2023-03-22T05:13:02;100548.72;;;11.14;94.34
16580;BME280;8402;51.466;6.806;2023-03-22T05:15:31;100555.44;;;11.16;93.93
16580;BME280;8402;51.466;6.806;2023-03-22T05:18:01;100550.03;;;11.16;94.40
16580;BME280;8402;51.466;6.806;2023-03-22T05:20:31;100550.66;;;11.13;95.11
16580;BME280;8402;51.466;6.806;2023-03-22T05:23:01;100560.09;;;11.16;94.47
16580;BME280;8402;51.466;6.806;2023-03-22T05:25:31;100558.16;;;11.16;94.23
16580;BME280;8402;51.466;6.806;2023-03-22T05:28:04;100558.16;;;11.16;94.48
16580;BME280;8402;51.466;6.806;2023-03-22T05:30:34;100551.63;;;11.17;94.28
16580;BME280;8402;51.466;6.806;2023-03-22T05:33:04;100553.22;;;11.18;94.48
16580;BME280;8402;51.466;6.806;2023-03-22T05:35:36;100546.97;;;11.18;94.83
16580;BME280;8402;51.466;6.806;2023-03-22T05:38:07;100545.53;;;11.20;94.72
16580;BME280;8402;51.466;6.806;2023-03-22T05:40:37;100540.59;;;11.22;94.56
16580;BME280;8402;51.466;6.806;2023-03-22T05:43:10;100548.25;;;11.20;94.83
16580;BME280;8402;51.466;6.806;2023-03-22T05:45:40;100546.97;;;11.26;94.45
16580;BME280;8402;51.466;6.806;2023-03-22T05:48:11;100556.06;;;11.30;94.13
16580;BME280;8402;51.466;6.806;2023-03-22T05:50:41;100549.50;;;11.32;94.18
16580;BME280;8402;51.466;6.806;2023-03-22T05:53:11;100547.72;;;11.36;93.97
16580;BME280;8402;51.466;6.806;2023-03-22T05:55:41;100535.44;;;11.38;94.35
16580;BME280;8402;51.466;6.806;2023-03-22T05:58:13;100541.00;;;11.42;94.06
16580;BME280;8402;51.466;6.806;2023-03-22T06:00:45;100548.03;;;11.43;94.10
16580;BME280;8402;51.466;6.806;2023-03-22T06:03:15;100542.88;;;11.50;93.89
16580;BME280;8402;51.466;6.806;2023-03-22T06:05:45;100537.94;;;11.52;93.97
16580;BME280;8402;51.466;6.806;2023-03-22T06:08:16;100543.84;;;11.54;93.81
16580;BME280;8402;51.466;6.806;2023-03-22T06:10:48;100543.19;;;11.57;93.68
16580;BME280;8402;51.466;6.806;2023-03-22T06:13:20;100539.84;;;11.60;93.92
16580;BME280;8402;51.466;6.806;2023-03-22T06:15:50;100543.00;;;11.62;93.71
16580;BME280;8402;51.466;6.806;2023-03-22T06:18:20;100546.69;;;11.66;93.87
16580;BME280;8402;51.466;6.806;2023-03-22T06:20:50;100540.25;;;11.71;93.45
16580;BME280;8402;51.466;6.806;2023-03-22T06:23:20;100540.88;;;11.76;93.35
16580;BME280;8402;51.466;6.806;2023-03-22T06:25:50;100550.97;;;11.76;93.17
16580;BME280;8402;51.466;6.806;2023-03-22T06:28:23;100539.28;;;11.75;93.35
16580;BME280;8402;51.466;6.806;2023-03-22T06:30:55;100537.03;;;11.77;93.08
16580;BME280;8402;51.466;6.806;2023-03-22T06:33:25;100525.38;;;11.77;93.07
16580;BME280;8402;51.466;6.806;2023-03-22T06:35:55;100522.97;;;11.75;93.25
16580;BME280;8402;51.466;6.806;2023-03-22T06:38:26;100533.38;;;11.82;92.91
16580;BME280;8402;51.466;6.806;2023-03-22T06:40:56;100524.88;;;11.83;92.88
16580;BME280;8402;51.466;6.806;2023-03-22T06:43:28;100530.47;;;11.87;92.63
16580;BME280;8402;51.466;6.806;2023-03-22T06:45:58;100522.00;;;11.89;92.63
16580;BME280;8402;51.466;6.806;2023-03-22T06:48:28;100523.59;;;11.90;92.44
16580;BME280;8402;51.466;6.806;2023-03-22T06:50:58;100525.16;;;11.91;92.58
16580;BME280;8402;51.466;6.806;2023-03-22T06:53:28;100528.34;;;11.93;92.21
16580;BME280;8402;51.466;6.806;2023-03-22T06:55:58;100524.53;;;11.94;92.11
16580;BME280;8402;51.466;6.806;2023-03-22T06:58:30;100524.53;;;11.94;91.53
16580;BME280;8402;51.466;6.806;2023-03-22T07:01:00;100517.63;;;11.96;91.81
16580;BME280;8402;51.466;6.806;2023-03-22T07:03:30;100505.97;;;11.96;91.60
16580;BME280;8402;51.466;6.806;2023-03-22T07:06:00;100521.59;;;11.99;91.82
16580;BME280;8402;51.466;6.806;2023-03-22T07:08:30;100526.41;;;12.02;91.80
16580;BME280;8402;51.466;6.806;2023-03-22T07:11:00;100524.16;;;12.04;91.69
16580;BME280;8402;51.466;6.806;2023-03-22T07:13:33;100518.03;;;12.07;91.36
16580;BME280;8402;51.466;6.806;2023-03-22T07:16:03;100522.16;;;12.13;91.36
16580;BME280;8402;51.466;6.806;2023-03-22T07:18:34;100516.88;;;12.17;91.38
16580;BME280;8402;51.466;6.806;2023-03-22T07:21:04;100518.59;;;12.21;91.00
16580;BME280;8402;51.466;6.806;2023-03-22T07:23:34;100516.63;;;12.30;91.21
16580;BME280;8402;51.466;6.806;2023-03-22T07:26:04;100512.72;;;12.40;91.00
16580;BME280;8402;51.466;6.806;2023-03-22T07:28:37;100519.66;;;12.50;90.45
16580;BME280;8402;51.466;6.806;2023-03-22T07:31:11;100518.16;;;12.61;90.47
16580;BME280;8402;51.466;6.806;2023-03-22T07:33:41;100510.94;;;12.65;89.43
16580;BME280;8402;51.466;6.806;2023-03-22T07:36:11;100510.25;;;12.68;89.67
16580;BME280;8402;51.466;6.806;2023-03-22T07:38:41;100503.66;;;12.69;89.53
16580;BME280;8402;51.466;6.806;2023-03-22T07:41:11;100505.59;;;12.68;89.39
16580;BME280;8402;51.466;6.806;2023-03-22T07:43:43;100509.13;;;12.69;88.95
16580;BME280;8402;51.466;6.806;2023-03-22T07:46:24;100510.25;;;12.68;89.16
16580;BME280;8402;51.466;6.806;2023-03-22T07:48:54;100512.97;;;12.68;89.19
16580;BME280;8402;51.466;6.806;2023-03-22T07:51:24;100520.34;;;12.67;89.21
16580;BME280;8402;51.466;6.806;2023-03-22T07:53:54;100524.19;;;12.66;89.18
16580;BME280;8402;51.466;6.806;2023-03-22T07:56:23;100518.59;;;12.63;89.21
16580;BME280;8402;51.466;6.806;2023-03-22T07:58:56;100517.81;;;12.62;88.68
16580;BME280;8402;51.466;6.806;2023-03-22T08:01:26;100510.25;;;12.68;88.60
16580;BME280;8402;51.466;6.806;2023-03-22T08:03:56;100519.66;;;12.71;88.19
16580;BME280;8402;51.466;6.806;2023-03-22T08:06:26;100511.63;;;12.74;88.09
16580;BME280;8402;51.466;6.806;2023-03-22T08:08:58;100518.00;;;12.78;87.76
16580;BME280;8402;51.466;6.806;2023-03-22T08:11:28;100523.25;;;12.83;87.51
16580;BME280;8402;51.466;6.806;2023-03-22T08:14:01;100527.09;;;12.82;86.23
16580;BME280;8402;51.466;6.806;2023-03-22T08:16:31;100525.09;;;12.91;86.31
16580;BME280;8402;51.466;6.806;2023-03-22T08:19:01;100526.22;;;12.90;85.75
16580;BME280;8402;51.466;6.806;2023-03-22T08:21:33;100527.63;;;12.97;84.86
16580;BME280;8402;51.466;6.806;2023-03-22T08:24:03;100534.91;;;13.05;84.98
16580;BME280;8402;51.466;6.806;2023-03-22T08:26:33;100541.03;;;13.02;82.50
16580;BME280;8402;51.466;6.806;2023-03-22T08:29:07;100537.28;;;13.06;82.56
16580;BME280;8402;51.466;6.806;2023-03-22T08:31:37;100524.94;;;13.09;82.46
16580;BME280;8402;51.466;6.806;2023-03-22T08:34:07;100530.50;;;13.12;83.09
16580;BME280;8402;51.466;6.806;2023-03-22T08:36:37;100540.84;;;13.19;83.59
16580;BME280;8402;51.466;6.806;2023-03-22T08:39:08;100533.16;;;13.21;81.83
16580;BME280;8402;51.466;6.806;2023-03-22T08:41:38;100535.69;;;13.26;82.39
16580;BME280;8402;51.466;6.806;2023-03-22T08:44:11;100537.25;;;13.27;80.40
16580;BME280;8402;51.466;6.806;2023-03-22T08:46:41;100525.72;;;13.30;81.44
16580;BME280;8402;51.466;6.806;2023-03-22T08:49:10;100530.47;;;13.33;80.85
16580;BME280;8402;51.466;6.806;2023-03-22T08:51:40;100523.28;;;13.29;80.84
16580;BME280;8402;51.466;6.806;2023-03-22T08:54:13;100530.47;;;13.33;79.74
16580;BME280;8402;51.466;6.806;2023-03-22T08:56:44;100529.56;;;13.41;80.76
16580;BME280;8402;51.466;6.806;2023-03-22T08:59:16;100520.50;;;13.49;79.62
16580;BME280;8402;51.466;6.806;2023-03-22T09:01:46;100523.25;;;13.62;80.69
16580;BME280;8402;51.466;6.806;2023-03-22T09:04:16;100522.59;;;13.65;79.89
16580;BME280;8402;51.466;6.806;2023-03-22T09:06:46;100517.38;;;13.72;79.40
16580;BME280;8402;51.466;6.806;2023-03-22T09:09:16;100526.78;;;13.87;80.08
16580;BME280;8402;51.466;6.806;2023-03-22T09:11:46;100528.13;;;13.93;78.54
16580;BME280;8402;51.466;6.806;2023-03-22T09:14:18;100526.22;;;13.93;78.45
16580;BME280;8402;51.466;6.806;2023-03-22T09:16:48;100530.41;;;13.91;78.68
16580;BME280;8402;51.466;6.806;2023-03-22T09:19:18;100526.91;;;13.90;78.37
16580;BME280;8402;51.466;6.806;2023-03-22T09:21:51;100529.97;;;13.89;77.22
16580;BME280;8402;51.466;6.806;2023-03-22T09:24:21;100537.13;;;13.93;77.60
16580;BME280;8402;51.466;6.806;2023-03-22T09:26:51;100523.50;;;13.93;76.93
16580;BME280;8402;51.466;6.806;2023-03-22T09:29:23;100524.41;;;13.97;77.45
16580;BME280;8402;51.466;6.806;2023-03-22T09:31:55;100512.34;;;13.98;77.30
16580;BME280;8402;51.466;6.806;2023-03-22T09:34:25;100518.72;;;14.02;78.34
16580;BME280;8402;51.466;6.806;2023-03-22T09:36:55;100517.13;;;14.01;78.27
16580;BME280;8402;51.466;6.806;2023-03-22T09:39:28;100524.16;;;14.02;77.93
16580;BME280;8402;51.466;6.806;2023-03-22T09:42:00;100519.50;;;14.03;77.89
16580;BME280;8402;51.466;6.806;2023-03-22T09:44:36;100524.84;;;13.99;77.67
16580;BME280;8402;51.466;6.806;2023-03-22T09:47:15;100529.41;;;13.95;76.64
16580;BME280;8402;51.466;6.806;2023-03-22T09:49:47;100509.16;;;13.96;77.04
16580;BME280;8402;51.466;6.806;2023-03-22T09:52:19;100516.78;;;14.03;76.83
16580;BME280;8402;51.466;6.806;2023-03-22T09:54:50;100522.59;;;14.01;75.45
16580;BME280;8402;51.466;6.806;2023-03-22T09:57:23;100523.59;;;14.09;75.91
16580;BME280;8402;51.466;6.806;2023-03-22T10:00:02;100512.44;;;14.14;76.77
16580;BME280;8402;51.466;6.806;2023-03-22T10:02:45;100512.78;;;14.13;75.26
16580;BME280;8402;51.466;6.806;2023-03-22T10:05:27;100513.47;;;14.10;74.21
16580;BME280;8402;51.466;6.806;2023-03-22T10:08:09;100507.31;;;14.13;74.70
16580;BME280;8402;51.466;6.806;2023-03-22T10:10:42;100501.63;;;14.18;75.46
16580;BME280;8402;51.466;6.806;2023-03-22T10:13:16;100499.13;;;14.25;75.71
16580;BME280;8402;51.466;6.806;2023-03-22T10:15:53;100485.00;;;14.35;75.46
16580;BME280;8402;51.466;6.806;2023-03-22T10:18:26;100474.28;;;14.54;75.41
16580;BME280;8402;51.466;6.806;2023-03-22T10:21:00;100490.63;;;14.67;73.16
16580;BME280;8402;51.466;6.806;2023-03-22T10:23:34;100488.97;;;14.78;74.68
16580;BME280;8402;51.466;6.806;2023-03-22T10:26:16;100496.72;;;14.76;72.16
16580;BME280;8402;51.466;6.806;2023-03-22T10:28:50;100505.72;;;14.76;72.93
16580;BME280;8402;51.466;6.806;2023-03-22T10:31:26;100498.38;;;14.65;70.42
16580;BME280;8402;51.466;6.806;2023-03-22T10:33:58;100503.63;;;14.57;72.40
16580;BME280;8402;51.466;6.806;2023-03-22T10:36:33;100506.94;;;14.51;70.93
16580;BME280;8402;51.466;6.806;2023-03-22T10:39:11;100510.00;;;14.49;71.35
16580;BME280;8402;51.466;6.806;2023-03-22T10:41:43;100502.28;;;14.51;71.72
16580;BME280;8402;51.466;6.806;2023-03-22T10:44:16;100502.50;;;14.58;72.10
16580;BME280;8402;51.466;6.806;2023-03-22T10:46:50;100505.75;;;14.64;71.28
16580;BME280;8402;51.466;6.806;2023-03-22T10:49:24;100496.53;;;14.69;71.97
16580;BME280;8402;51.466;6.806;2023-03-22T10:52:01;100501.53;;;14.67;70.73
16580;BME280;8402;51.466;6.806;2023-03-22T10:54:32;100494.34;;;14.74;71.67
16580;BME280;8402;51.466;6.806;2023-03-22T10:57:02;100494.19;;;14.83;71.83
16580;BME280;8402;51.466;6.806;2023-03-22T10:59:43;100508.63;;;14.83;70.87
16580;BME280;8402;51.466;6.806;2023-03-22T11:02:21;100496.25;;;14.86;70.95
16580;BME280;8402;51.466;6.806;2023-03-22T11:04:54;100503.72;;;14.89;70.73
16580;BME280;8402;51.466;6.806;2023-03-22T11:07:31;100495.53;;;14.89;69.86
16580;BME280;8402;51.466;6.806;2023-03-22T11:10:16;100496.75;;;14.92;70.06
16580;BME280;8402;51.466;6.806;2023-03-22T11:12:50;100499.78;;;15.02;71.15
16580;BME280;8402;51.466;6.806;2023-03-22T11:15:29;100506.13;;;15.06;70.68
16580;BME280;8402;51.466;6.806;2023-03-22T11:18:06;100490.19;;;15.08;70.31
16580;BME280;8402;51.466;6.806;2023-03-22T11:20:39;100496.09;;;15.10;70.19
16580;BME280;8402;51.466;6.806;2023-03-22T11:23:11;100499.09;;;15.05;69.39
16580;BME280;8402;51.466;6.806;2023-03-22T11:25:46;100503.69;;;15.01;69.37
16580;BME280;8402;51.466;6.806;2023-03-22T11:28:18;100488.63;;;15.07;70.14
16580;BME280;8402;51.466;6.806;2023-03-22T11:30:58;100493.63;;;15.05;68.89
16580;BME280;8402;51.466;6.806;2023-03-22T11:33:31;100482.69;;;15.05;69.55
16580;BME280;8402;51.466;6.806;2023-03-22T11:36:13;100487.16;;;14.98;68.94
16580;BME280;8402;51.466;6.806;2023-03-22T11:38:44;100490.84;;;14.90;69.21
16580;BME280;8402;51.466;6.806;2023-03-22T11:41:20;100494.03;;;14.92;69.45
16580;BME280;8402;51.466;6.806;2023-03-22T11:43:53;100487.78;;;14.91;69.21
16580;BME280;8402;51.466;6.806;2023-03-22T11:46:24;100476.84;;;14.91;70.00
16580;BME280;8402;51.466;6.806;2023-03-22T11:49:00;100479.38;;;14.84;69.98
16580;BME280;8402;51.466;6.806;2023-03-22T11:51:33;100475.84;;;14.83;71.25
16580;BME280;8402;51.466;6.806;2023-03-22T11:54:07;100496.25;;;14.86;70.87
16580;BME280;8402;51.466;6.806;2023-03-22T11:56:41;100483.63;;;14.81;70.49
16580;BME280;8402;51.466;6.806;2023-03-22T11:59:13;100468.72;;;14.79;70.03
16580;BME280;8402;51.466;6.806;2023-03-22T12:01:47;100477.25;;;14.77;70.36
16580;BME280;8402;51.466;6.806;2023-03-22T12:04:25;100474.44;;;14.74;70.31
16580;BME280;8402;51.466;6.806;2023-03-22T12:07:00;100477.06;;;14.70;69.41
16580;BME280;8402;51.466;6.806;2023-03-22T12:09:38;100476.03;;;14.75;70.12
16580;BME280;8402;51.466;6.806;2023-03-22T12:12:12;100484.22;;;14.75;69.85
16580;BME280;8402;51.466;6.806;2023-03-22T12:14:48;100469.41;;;14.76;69.04
16580;BME280;8402;51.466;6.806;2023-03-22T12:17:27;100470.81;;;14.70;69.26
16580;BME280;8402;51.466;6.806;2023-03-22T12:20:09;100467.38;;;14.73;69.84
16580;BME280;8402;51.466;6.806;2023-03-22T12:22:47;100472.59;;;14.78;70.00
16580;BME280;8402;51.466;6.806;2023-03-22T12:25:21;100469.31;;;14.72;68.24
16580;BME280;8402;51.466;6.806;2023-03-22T12:27:54;100467.72;;;14.71;68.74
16580;BME280;8402;51.466;6.806;2023-03-22T12:30:27;100471.50;;;14.67;68.89
16580;BME280;8402;51.466;6.806;2023-03-22T12:33:02;100471.97;;;14.56;68.80
16580;BME280;8402;51.466;6.806;2023-03-22T12:35:38;100486.09;;;14.58;69.13
16580;BME280;8402;51.466;6.806;2023-03-22T12:38:20;100473.84;;;14.52;69.64
16580;BME280;8402;51.466;6.806;2023-03-22T12:40:54;100486.78;;;14.55;70.14
16580;BME280;8402;51.466;6.806;2023-03-22T12:43:43;100475.41;;;14.53;70.58
16580;BME280;8402;51.466;6.806;2023-03-22T12:46:17;100486.78;;;14.55;69.98
16580;BME280;8402;51.466;6.806;2023-03-22T12:48:51;100475.88;;;14.55;69.44
16580;BME280;8402;51.466;6.806;2023-03-22T12:51:24;100481.78;;;14.57;69.78
16580;BME280;8402;51.466;6.806;2023-03-22T12:53:56;100479.06;;;14.57;69.87
16580;BME280;8402;51.466;6.806;2023-03-22T12:56:32;100473.03;;;14.52;68.95
16580;BME280;8402;51.466;6.806;2023-03-22T12:59:11;100481.31;;;14.55;69.70
16580;BME280;8402;51.466;6.806;2023-03-22T13:01:46;100486.19;;;14.62;70.29
16580;BME280;8402;51.466;6.806;2023-03-22T13:04:30;100474.47;;;14.62;69.94
16580;BME280;8402;51.466;6.806;2023-03-22T13:07:14;100470.59;;;14.63;68.45
16580;BME280;8402;51.466;6.806;2023-03-22T13:09:46;100471.72;;;14.74;70.12
16580;BME280;8402;51.466;6.806;2023-03-22T13:12:28;100458.41;;;14.72;69.22
16580;BME280;8402;51.466;6.806;2023-03-22T13:15:02;100470.41;;;14.83;69.61
16580;BME280;8402;51.466;6.806;2023-03-22T13:18:13;100463.47;;;14.86;69.71
16580;BME280;8402;51.466;6.806;2023-03-22T13:21:10;100468.03;;;14.82;68.82
16580;BME280;8402;51.466;6.806;2023-03-22T13:23:59;100465.72;;;14.84;69.43
16580;BME280;8402;51.466;6.806;2023-03-22T13:26:34;100463.47;;;14.86;69.55
16580;BME280;8402;51.466;6.806;2023-03-22T13:29:10;100470.50;;;14.87;69.91
16580;BME280;8402;51.466;6.806;2023-03-22T13:31:46;100466.38;;;14.93;69.62
16580;BME280;8402;51.466;6.806;2023-03-22T13:34:35;100455.00;;;14.91;69.95
16580;BME280;8402;51.466;6.806;2023-03-22T13:37:15;100449.63;;;14.95;70.09
16580;BME280;8402;51.466;6.806;2023-03-22T13:39:53;100448.84;;;14.94;69.82
16580;BME280;8402;51.466;6.806;2023-03-22T13:42:32;100446.56;;;14.96;69.70
16580;BME280;8402;51.466;6.806;2023-03-22T13:45:08;100424.88;;;15.03;70.22
16580;BME280;8402;51.466;6.806;2023-03-22T13:47:43;100427.34;;;15.08;69.35
16580;BME280;8402;51.466;6.806;2023-03-22T13:50:15;100410.41;;;15.19;69.58
16580;BME280;8402;51.466;6.806;2023-03-22T13:52:52;100417.66;;;15.27;69.96